Terminal Aerodrome Forecast
Issued by NWS

Home | Current Version | Previous Version | Text Only | Print | Product List | Glossary On
Versions: 1 2 3 4 5 6 7 8 9 10 11 12 13 14 15 16
000
FTUS46 KLOX 181100
TAFOXR
TAF
KOXR 181120Z 1812/1912 VRB03KT P6SM SKC
     FM181800 26012KT P6SM SKC
     FM190400 VRB03KT 6SM BR SKC
     FM190900 VRB03KT 4SM BR BKN007=

USA.gov is the U.S. government's official web portal to all federal, state and local government web resources and services.